Time;durP1;ratioP1;P1;durP2;ratioP2;P2;SDS_P1;SDS_P2;PMS_P1;PMS_P2;Temp;Humidity;BMP_temperature;BMP_pressure;BME280_temperature;BME280_humidity;BME280_pressure;Samples;Min_cycle;Max_cycle;Signal;HPM_P1;HPM_P2
2024/01/25 00:01:16;;;;;;;40.10;20.20;;;;;;;2.51;100.00;100619.48;109417;1243;61629;-69
2024/01/25 00:03:45;;;;;;;40.60;20.60;;;;;;;2.52;100.00;100613.97;109551;1243;59866;-69
2024/01/25 00:06:14;;;;;;;36.80;19.40;;;;;;;2.53;100.00;100615.27;109408;1243;73648;-67
2024/01/25 00:08:43;;;;;;;53.90;28.40;;;;;;;2.51;100.00;100615.21;109515;1243;62305;-69
2024/01/25 00:11:11;;;;;;;50.80;26.20;;;;;;;2.45;100.00;100615.10;109533;1243;62427;-70
2024/01/25 00:13:40;;;;;;;41.80;23.10;;;;;;;2.44;100.00;100615.11;109533;1243;63458;-69
2024/01/25 00:16:09;;;;;;;53.80;28.80;;;;;;;2.45;100.00;100611.33;109524;1243;61631;-68
2024/01/25 00:18:38;;;;;;;42.50;21.70;;;;;;;2.47;100.00;100604.71;109308;1243;69404;-68
2024/01/25 00:21:07;;;;;;;51.00;30.00;;;;;;;2.49;100.00;100603.77;109504;1243;63570;-69
2024/01/25 00:23:36;;;;;;;41.80;24.10;;;;;;;2.51;100.00;100604.02;109487;1245;58301;-72
2024/01/25 00:26:05;;;;;;;35.60;21.20;;;;;;;2.55;100.00;100599.40;109427;1243;61254;-69
2024/01/25 00:28:33;;;;;;;54.30;29.20;;;;;;;2.54;100.00;100597.54;109445;1243;74142;-70
2024/01/25 00:31:02;;;;;;;48.30;25.00;;;;;;;2.49;100.00;100603.23;109532;1243;63322;-69
2024/01/25 00:33:31;;;;;;;41.50;22.30;;;;;;;2.49;100.00;100606.32;109487;1243;70468;-71
2024/01/25 00:36:01;;;;;;;42.80;23.90;;;;;;;2.44;100.00;100607.58;109525;1243;65293;-70
2024/01/25 00:38:30;;;;;;;41.00;22.60;;;;;;;2.39;100.00;100597.27;109392;1244;62400;-69
2024/01/25 00:41:00;;;;;;;38.70;21.70;;;;;;;2.38;100.00;100594.92;109512;1243;58286;-70
2024/01/25 00:43:29;;;;;;;49.00;24.20;;;;;;;2.34;100.00;100586.98;109544;1243;73641;-70
2024/01/25 00:45:58;;;;;;;37.40;22.20;;;;;;;2.32;100.00;100586.21;109400;1243;71034;-70
2024/01/25 00:48:27;;;;;;;48.00;26.40;;;;;;;2.26;100.00;100578.39;109429;1243;69477;-70
2024/01/25 00:50:57;;;;;;;105.20;53.90;;;;;;;2.29;100.00;100592.34;109320;1243;71822;-70
2024/01/25 00:53:26;;;;;;;77.10;40.80;;;;;;;2.26;100.00;100589.54;109322;1245;62104;-70
2024/01/25 00:55:55;;;;;;;51.60;28.50;;;;;;;2.22;100.00;100584.70;109400;1243;60069;-70
2024/01/25 00:58:24;;;;;;;71.80;38.70;;;;;;;2.21;100.00;100578.56;109352;1243;75435;-69
2024/01/25 01:00:53;;;;;;;70.30;38.50;;;;;;;2.20;100.00;100581.52;109341;1245;61855;-70
2024/01/25 01:03:23;;;;;;;71.30;39.10;;;;;;;2.20;100.00;100581.17;109354;1243;59047;-69
2024/01/25 01:05:52;;;;;;;60.20;32.00;;;;;;;2.18;100.00;100579.55;109397;1243;73877;-68
2024/01/25 01:08:21;;;;;;;51.70;28.90;;;;;;;2.20;100.00;100573.63;109443;1244;58308;-69
2024/01/25 01:10:50;;;;;;;41.30;23.10;;;;;;;2.18;100.00;100570.63;109491;1243;58319;-69
2024/01/25 01:13:20;;;;;;;47.00;22.30;;;;;;;2.10;100.00;100567.14;109508;1243;73579;-68
2024/01/25 01:15:49;;;;;;;39.10;20.60;;;;;;;2.09;100.00;100565.98;109490;1243;72500;-68
2024/01/25 01:18:18;;;;;;;39.30;20.50;;;;;;;2.10;100.00;100563.90;109441;1244;70117;-69
2024/01/25 01:20:47;;;;;;;44.10;23.00;;;;;;;2.16;100.00;100571.57;109312;1243;74129;-69
2024/01/25 01:23:17;;;;;;;39.60;19.80;;;;;;;2.20;100.00;100566.77;109225;1247;58335;-68
2024/01/25 01:25:46;;;;;;;41.40;22.70;;;;;;;2.23;100.00;100554.61;109326;1246;57774;-70
2024/01/25 01:28:15;;;;;;;35.80;20.00;;;;;;;2.24;100.00;100547.69;109260;1244;74209;-70
2024/01/25 01:30:45;;;;;;;36.70;20.80;;;;;;;2.22;100.00;100549.15;109305;1244;71947;-69
2024/01/25 01:33:14;;;;;;;35.20;20.20;;;;;;;2.30;100.00;100541.07;109350;1243;60427;-69
2024/01/25 01:35:43;;;;;;;35.50;19.70;;;;;;;2.32;100.00;100540.30;109311;1245;62507;-69
2024/01/25 01:38:12;;;;;;;36.10;18.70;;;;;;;2.33;100.00;100539.27;109314;1244;57845;-68
2024/01/25 01:40:41;;;;;;;39.00;19.20;;;;;;;2.36;100.00;100540.49;109343;1244;59587;-69
2024/01/25 01:43:20;;;;;;;27.40;17.30;;;;;;;2.36;100.00;100538.08;109484;1243;73707;-70
2024/01/25 01:45:50;;;;;;;31.40;16.80;;;;;;;2.37;100.00;100536.15;109360;1243;71542;-70
2024/01/25 01:48:19;;;;;;;33.90;18.50;;;;;;;2.44;100.00;100533.49;109481;1243;71065;-69
2024/01/25 01:50:48;;;;;;;29.10;16.00;;;;;;;2.46;100.00;100527.04;109346;1246;73946;-69
2024/01/25 01:53:17;;;;;;;32.00;16.70;;;;;;;2.48;100.00;100524.38;109301;1247;62567;-69
2024/01/25 01:55:47;;;;;;;31.90;16.20;;;;;;;2.47;100.00;100519.08;109411;1243;58436;-69
2024/01/25 01:58:17;;;;;;;33.40;17.80;;;;;;;2.50;100.00;100516.37;109525;1243;74240;-69
2024/01/25 02:00:48;;;;;;;29.30;16.00;;;;;;;2.56;100.00;100513.20;109475;1243;70826;-70
2024/01/25 02:03:17;;;;;;;34.00;16.80;;;;;;;2.56;100.00;100512.67;109329;1244;59719;-70
2024/01/25 02:05:46;;;;;;;30.80;16.00;;;;;;;2.62;100.00;100515.89;109251;1244;74945;-69
2024/01/25 02:08:15;;;;;;;29.70;16.50;;;;;;;2.68;100.00;100511.30;109254;1245;58340;-70
2024/01/25 02:10:44;;;;;;;27.70;15.70;;;;;;;2.75;100.00;100511.88;109061;1248;58303;-70
2024/01/25 02:13:13;;;;;;;28.60;16.00;;;;;;;2.80;100.00;100510.28;109294;1243;74383;-69
2024/01/25 02:15:42;;;;;;;29.30;15.90;;;;;;;2.84;100.00;100506.65;109239;1243;70809;-71
2024/01/25 02:18:10;;;;;;;27.00;15.50;;;;;;;2.86;100.00;100505.20;109248;1243;71439;-69
2024/01/25 02:20:39;;;;;;;29.10;15.80;;;;;;;2.88;100.00;100503.53;109283;1243;72920;-68
2024/01/25 02:23:08;;;;;;;32.00;16.50;;;;;;;2.90;100.00;100506.25;109312;1245;58328;-69
2024/01/25 02:25:37;;;;;;;34.90;18.20;;;;;;;2.95;100.00;100510.33;109297;1245;57767;-69
2024/01/25 02:28:06;;;;;;;32.80;17.90;;;;;;;2.95;100.00;100507.58;109311;1245;62860;-69
2024/01/25 02:30:35;;;;;;;32.10;16.20;;;;;;;3.00;100.00;100506.00;109219;1244;71943;-69
2024/01/25 02:33:04;;;;;;;32.50;16.60;;;;;;;2.99;100.00;100504.79;109319;1243;70018;-69
2024/01/25 02:35:33;;;;;;;30.80;16.70;;;;;;;2.99;100.00;100505.81;109317;1243;73398;-69
2024/01/25 02:38:02;;;;;;;31.60;16.70;;;;;;;2.97;100.00;100505.25;109174;1246;57826;-69
2024/01/25 02:40:31;;;;;;;35.00;17.10;;;;;;;2.98;100.00;100504.17;109333;1243;61574;-69
2024/01/25 02:42:59;;;;;;;32.00;16.60;;;;;;;2.99;100.00;100503.77;109259;1243;74606;-69
2024/01/25 02:45:28;;;;;;;31.40;16.20;;;;;;;3.01;100.00;100506.27;109518;1243;61396;-68
2024/01/25 02:47:57;;;;;;;30.10;17.50;;;;;;;2.90;100.00;100507.77;109525;1245;59866;-70
2024/01/25 02:50:28;;;;;;;29.40;16.50;;;;;;;2.92;100.00;100506.64;109521;1243;73878;-68
2024/01/25 02:52:58;;;;;;;34.20;17.10;;;;;;;2.94;100.00;100507.79;109343;1247;57782;-68
2024/01/25 02:55:27;;;;;;;33.20;16.70;;;;;;;2.99;100.00;100506.21;109381;1243;60508;-70
2024/01/25 02:57:56;;;;;;;31.00;16.70;;;;;;;3.01;100.00;100508.34;109644;1242;62906;-69
2024/01/25 03:00:25;;;;;;;30.50;17.40;;;;;;;3.05;100.00;100509.84;109654;1244;60871;-69
2024/01/25 03:02:54;;;;;;;30.50;17.00;;;;;;;3.11;100.00;100509.95;109613;1244;69997;-69
2024/01/25 03:05:23;;;;;;;31.50;17.00;;;;;;;3.14;100.00;100507.23;109608;1244;62839;-69
2024/01/25 03:07:52;;;;;;;32.40;17.40;;;;;;;3.18;100.00;100508.07;109465;1246;57752;-68
2024/01/25 03:10:21;;;;;;;32.10;16.90;;;;;;;3.22;100.00;100507.05;109623;1244;58349;-69
2024/01/25 03:12:50;;;;;;;17.80;10.10;;;;;;;3.28;100.00;100504.19;109654;1244;63781;-69
2024/01/25 03:15:19;;;;;;;13.50;7.20;;;;;;;3.44;100.00;100505.20;109619;1244;72109;-70
2024/01/25 03:17:47;;;;;;;9.70;4.90;;;;;;;3.64;100.00;100509.95;109622;1242;70644;-70
2024/01/25 03:20:16;;;;;;;9.50;5.50;;;;;;;3.91;100.00;100505.02;109614;1243;74825;-70
2024/01/25 03:22:45;;;;;;;7.90;4.50;;;;;;;4.14;100.00;100496.16;109590;1245;61985;-70
2024/01/25 03:25:14;;;;;;;8.50;4.50;;;;;;;4.23;100.00;100490.20;109623;1244;58311;-70
2024/01/25 03:27:43;;;;;;;6.80;3.60;;;;;;;4.30;100.00;100489.88;109543;1245;62773;-70
2024/01/25 03:30:12;;;;;;;12.10;6.90;;;;;;;4.33;100.00;100485.94;109534;1245;61542;-70
2024/01/25 03:32:41;;;;;;;19.30;10.20;;;;;;;4.28;100.00;100482.72;109636;1244;59105;-70
2024/01/25 03:35:10;;;;;;;14.90;8.60;;;;;;;4.28;100.00;100483.24;109622;1244;71861;-70
2024/01/25 03:37:39;;;;;;;22.50;12.60;;;;;;;4.20;100.00;100483.12;109530;1245;57786;-69
2024/01/25 03:40:08;;;;;;;24.40;12.60;;;;;;;4.19;100.00;100486.60;109647;1242;60242;-69
2024/01/25 03:42:37;;;;;;;26.10;15.40;;;;;;;4.14;100.00;100487.73;109627;1244;64177;-70
2024/01/25 03:45:07;;;;;;;27.90;14.40;;;;;;;4.08;100.00;100491.65;109566;1242;61481;-69
2024/01/25 03:47:35;;;;;;;14.10;8.10;;;;;;;4.00;100.00;100493.25;109487;1243;69452;-69
2024/01/25 03:50:05;;;;;;;18.10;9.50;;;;;;;3.97;100.00;100490.26;109645;1242;73597;-69
2024/01/25 03:52:34;;;;;;;15.20;8.60;;;;;;;3.97;100.00;100486.48;109646;1244;62894;-71
2024/01/25 03:55:04;;;;;;;9.00;5.40;;;;;;;4.02;100.00;100489.86;109683;1243;60644;-71
2024/01/25 03:57:33;;;;;;;11.70;5.80;;;;;;;4.02;100.00;100489.37;109709;1244;64203;-70
2024/01/25 04:00:03;;;;;;;7.60;4.60;;;;;;;4.09;100.00;100475.91;109660;1243;70277;-69
2024/01/25 04:02:33;;;;;;;11.30;5.90;;;;;;;4.17;100.00;100465.86;109692;1242;69817;-70
2024/01/25 04:05:03;;;;;;;9.60;4.80;;;;;;;4.09;100.00;100471.10;109664;1246;62945;-69
2024/01/25 04:07:32;;;;;;;7.50;3.90;;;;;;;4.11;100.00;100471.84;109420;1247;58314;-70
2024/01/25 04:10:01;;;;;;;10.10;4.30;;;;;;;4.06;100.00;100470.91;109664;1243;60160;-70
2024/01/25 04:12:31;;;;;;;5.00;3.20;;;;;;;4.03;100.00;100474.12;109667;1243;74017;-72
2024/01/25 04:15:00;;;;;;;7.00;3.60;;;;;;;3.94;100.00;100477.67;109669;1243;72603;-69
2024/01/25 04:17:28;;;;;;;6.00;3.30;;;;;;;3.88;100.00;100476.04;109630;1243;69919;-69
2024/01/25 04:19:57;;;;;;;5.50;2.70;;;;;;;3.79;100.00;100473.60;109576;1245;65392;-70
2024/01/25 04:22:26;;;;;;;5.70;3.30;;;;;;;3.72;100.00;100483.41;109647;1244;62862;-70
2024/01/25 04:24:55;;;;;;;6.30;3.00;;;;;;;3.63;100.00;100482.58;109656;1244;58286;-70
2024/01/25 04:27:24;;;;;;;6.80;3.40;;;;;;;3.57;100.00;100481.87;109671;1243;63781;-70
2024/01/25 04:29:53;;;;;;;7.40;3.70;;;;;;;3.51;100.00;100483.34;109666;1243;71203;-71
2024/01/25 04:32:21;;;;;;;6.10;3.70;;;;;;;3.48;100.00;100486.76;109648;1244;61355;-71
2024/01/25 04:34:50;;;;;;;7.30;4.00;;;;;;;3.39;100.00;100484.75;109632;1244;63912;-71
2024/01/25 04:37:19;;;;;;;10.60;5.10;;;;;;;3.36;100.00;100488.00;109496;1246;57805;-70
2024/01/25 04:39:48;;;;;;;12.80;6.00;;;;;;;3.36;100.00;100494.70;109543;1243;58239;-71
2024/01/25 04:42:18;;;;;;;9.20;5.70;;;;;;;3.44;100.00;100502.11;109592;1246;73506;-70
2024/01/25 04:44:46;;;;;;;6.80;3.40;;;;;;;3.54;100.00;100501.63;109407;1244;71896;-70
2024/01/25 04:47:15;;;;;;;5.50;2.70;;;;;;;3.65;100.00;100501.08;109571;1243;68408;-71
2024/01/25 04:49:44;;;;;;;6.40;3.30;;;;;;;3.79;100.00;100507.83;109618;1243;63876;-70
2024/01/25 04:52:13;;;;;;;4.60;2.70;;;;;;;4.00;100.00;100510.45;109560;1244;57807;-71
2024/01/25 04:54:42;;;;;;;5.20;3.40;;;;;;;4.17;100.00;100513.05;109511;1243;61038;-69
2024/01/25 04:57:10;;;;;;;7.40;4.30;;;;;;;4.25;100.00;100510.98;109505;1244;73730;-69
2024/01/25 04:59:39;;;;;;;7.50;4.50;;;;;;;4.36;100.00;100514.89;109419;1243;61843;-69
2024/01/25 05:02:08;;;;;;;6.90;3.60;;;;;;;4.43;100.00;100512.13;109651;1244;60027;-70
2024/01/25 05:04:37;;;;;;;7.90;3.70;;;;;;;4.41;100.00;100503.61;109568;1243;63072;-70
2024/01/25 05:07:06;;;;;;;5.60;3.60;;;;;;;4.49;100.00;100511.33;109593;1244;57855;-73
2024/01/25 05:09:35;;;;;;;6.80;3.60;;;;;;;4.51;100.00;100505.15;109518;1243;57801;-72
2024/01/25 05:12:04;;;;;;;5.60;3.70;;;;;;;4.59;100.00;100502.89;109533;1241;63628;-80
2024/01/25 05:14:33;;;;;;;7.80;3.60;;;;;;;4.64;100.00;100490.73;109570;1244;71425;-71
2024/01/25 05:17:02;;;;;;;7.80;4.10;;;;;;;4.65;100.00;100486.36;109551;1243;59734;-71
2024/01/25 05:19:31;;;;;;;7.90;5.00;;;;;;;4.61;100.00;100490.86;109563;1245;62313;-71
2024/01/25 05:22:01;;;;;;;5.90;3.80;;;;;;;4.58;100.00;100496.02;109224;1248;57842;-71
2024/01/25 05:24:30;;;;;;;9.60;5.50;;;;;;;4.57;100.00;100501.28;109255;1243;61013;-71
2024/01/25 05:26:59;;;;;;;21.40;9.90;;;;;;;4.52;100.00;100500.30;109360;1246;74771;-71
2024/01/25 05:29:27;;;;;;;17.90;7.90;;;;;;;4.48;100.00;100503.06;109488;1243;62939;-72
2024/01/25 05:31:57;;;;;;;7.90;4.50;;;;;;;4.42;100.00;100504.43;109458;1243;59894;-73
2024/01/25 05:34:26;;;;;;;10.80;6.40;;;;;;;4.42;100.00;100505.47;109308;1244;73887;-72
2024/01/25 05:36:55;;;;;;;10.30;4.60;;;;;;;4.40;100.00;100515.73;109307;1246;60949;-74
2024/01/25 05:39:24;;;;;;;7.80;4.80;;;;;;;4.43;100.00;100513.16;109252;1247;60700;-73
2024/01/25 05:41:52;;;;;;;7.20;4.40;;;;;;;4.49;100.00;100513.75;109233;1244;75013;-75
2024/01/25 05:44:21;;;;;;;7.30;4.30;;;;;;;4.52;100.00;100505.13;109247;1243;61508;-73
2024/01/25 05:46:50;;;;;;;6.50;4.10;;;;;;;4.52;100.00;100508.60;109308;1243;59966;-73
2024/01/25 05:49:19;;;;;;;7.30;3.70;;;;;;;4.47;100.00;100503.33;109295;1244;73125;-73
2024/01/25 05:51:48;;;;;;;7.50;4.00;;;;;;;4.50;100.00;100510.73;109307;1245;63193;-73
2024/01/25 05:54:17;;;;;;;9.40;5.60;;;;;;;4.54;100.00;100514.02;109295;1245;60848;-73
2024/01/25 05:56:45;;;;;;;6.90;3.90;;;;;;;4.47;100.00;100510.20;109266;1243;75654;-74
2024/01/25 05:59:14;;;;;;;5.90;4.10;;;;;;;4.48;100.00;100498.63;109389;1244;61940;-73
2024/01/25 06:01:43;;;;;;;8.40;5.50;;;;;;;4.44;100.00;100499.83;109456;1243;60005;-72
2024/01/25 06:04:12;;;;;;;7.60;5.30;;;;;;;4.38;100.00;100502.41;109496;1243;62362;-73
2024/01/25 06:06:41;;;;;;;9.10;5.20;;;;;;;4.36;100.00;100499.08;109503;1244;58815;-73
2024/01/25 06:09:10;;;;;;;7.90;5.00;;;;;;;4.35;100.00;100503.05;109516;1243;57787;-73
2024/01/25 06:11:41;;;;;;;6.00;4.50;;;;;;;4.34;100.00;100502.27;109514;1245;73632;-73
2024/01/25 06:14:11;;;;;;;8.60;5.10;;;;;;;4.35;100.00;100499.10;109395;1243;62035;-73
2024/01/25 06:16:40;;;;;;;8.10;5.20;;;;;;;4.31;100.00;100497.90;109298;1244;60823;-74
2024/01/25 06:19:09;;;;;;;8.10;4.30;;;;;;;4.34;100.00;100496.04;109477;1244;63746;-71
2024/01/25 06:21:38;;;;;;;8.00;4.20;;;;;;;4.39;100.00;100498.92;109473;1245;58291;-73
2024/01/25 06:24:07;;;;;;;7.70;4.30;;;;;;;4.42;100.00;100500.48;109508;1244;57785;-73
2024/01/25 06:26:36;;;;;;;7.80;4.10;;;;;;;4.44;100.00;100502.79;109303;1244;62979;-72
2024/01/25 06:29:05;;;;;;;5.10;3.50;;;;;;;4.49;100.00;100503.21;109617;1243;60965;-72
2024/01/25 06:31:43;;;;;;;6.60;4.00;;;;;;;4.54;100.00;100497.10;109597;1244;70266;-73
2024/01/25 06:34:12;;;;;;;10.70;6.50;;;;;;;4.55;100.00;100494.45;109614;1243;63597;-73
2024/01/25 06:36:42;;;;;;;12.00;7.00;;;;;;;4.63;100.00;100489.92;109385;1247;61301;-73
2024/01/25 06:39:11;;;;;;;11.90;7.60;;;;;;;4.68;100.00;100490.50;109475;1244;60020;-73
2024/01/25 06:41:39;;;;;;;15.40;8.30;;;;;;;4.69;100.00;100489.79;109583;1243;73407;-74
2024/01/25 06:44:08;;;;;;;15.00;9.10;;;;;;;4.67;100.00;100487.98;109492;1242;62385;-73
2024/01/25 06:46:37;;;;;;;24.30;15.40;;;;;;;4.67;100.00;100490.94;109561;1243;59934;-73
2024/01/25 06:49:07;;;;;;;29.70;19.50;;;;;;;4.67;100.00;100493.33;109453;1244;73783;-74
2024/01/25 06:51:35;;;;;;;31.50;17.70;;;;;;;4.58;100.00;100500.20;109202;1243;214954;-73
2024/01/25 06:54:04;;;;;;;26.20;15.20;;;;;;;4.60;100.00;100500.09;109482;1243;57813;-73
2024/01/25 06:56:34;;;;;;;24.80;14.20;;;;;;;4.55;100.00;100505.48;109383;1243;63042;-72
2024/01/25 06:59:03;;;;;;;23.40;12.90;;;;;;;4.61;100.00;100498.14;109400;1243;60911;-73
2024/01/25 07:01:32;;;;;;;21.00;13.00;;;;;;;4.40;100.00;100502.80;109399;1244;69731;-72
2024/01/25 07:04:03;;;;;;;19.50;11.20;;;;;;;4.54;100.00;100499.36;109464;1245;74238;-73
2024/01/25 07:06:32;;;;;;;19.40;13.30;;;;;;;4.53;100.00;100495.41;109462;1245;62448;-72
2024/01/25 07:09:02;;;;;;;21.20;12.20;;;;;;;4.40;100.00;100493.66;109488;1243;57776;-73
2024/01/25 07:11:30;;;;;;;21.50;12.40;;;;;;;4.53;100.00;100495.41;109487;1244;74387;-73
2024/01/25 07:13:59;;;;;;;18.80;10.70;;;;;;;4.66;100.00;100495.63;109368;1243;62022;-73
2024/01/25 07:16:30;;;;;;;20.30;10.90;;;;;;;4.73;100.00;100493.56;109362;1243;59446;-73
2024/01/25 07:18:59;;;;;;;16.80;10.10;;;;;;;4.82;100.00;100485.71;109348;1244;73266;-73
2024/01/25 07:21:28;;;;;;;15.90;10.40;;;;;;;4.85;100.00;100488.65;109116;1244;61732;-73
2024/01/25 07:23:56;;;;;;;18.20;10.30;;;;;;;4.91;100.00;100485.55;109333;1243;60867;-73
2024/01/25 07:26:25;;;;;;;16.30;10.20;;;;;;;4.96;100.00;100480.77;109322;1244;63468;-72
2024/01/25 07:28:57;;;;;;;15.30;10.10;;;;;;;5.06;100.00;100479.20;109436;1243;60768;-72
2024/01/25 07:31:27;;;;;;;15.20;10.20;;;;;;;5.13;100.00;100477.11;109494;1244;69754;-72
2024/01/25 07:33:57;;;;;;;17.70;11.00;;;;;;;5.22;100.00;100476.29;109501;1244;63653;-72
2024/01/25 07:36:26;;;;;;;18.60;11.80;;;;;;;5.28;100.00;100476.98;109473;1244;58288;-73
2024/01/25 07:38:55;;;;;;;43.10;21.50;;;;;;;5.35;100.00;100472.48;109512;1244;58186;-72
2024/01/25 07:41:23;;;;;;;25.60;16.60;;;;;;;5.48;100.00;100467.59;109384;1243;73532;-73
2024/01/25 07:43:55;;;;;;;14.50;10.10;;;;;;;5.49;100.00;100473.10;109433;1244;61434;-73
2024/01/25 07:46:24;;;;;;;15.90;10.30;;;;;;;5.43;100.00;100477.39;109528;1243;70485;-75
2024/01/25 07:48:53;;;;;;;14.90;9.70;;;;;;;5.42;100.00;100474.88;109393;1246;63654;-72
2024/01/25 07:51:22;;;;;;;12.70;7.60;;;;;;;5.38;100.00;100471.48;109481;1245;58327;-73
2024/01/25 07:53:51;;;;;;;11.00;7.20;;;;;;;5.43;100.00;100468.23;109456;1243;58160;-73
2024/01/25 07:56:21;;;;;;;12.20;8.10;;;;;;;5.50;100.00;100468.02;109257;1244;75095;-73
2024/01/25 07:58:51;;;;;;;12.30;7.80;;;;;;;5.50;100.00;100468.02;109247;1244;61406;-73
2024/01/25 08:01:20;;;;;;;13.40;8.80;;;;;;;5.44;100.00;100463.16;109334;1245;60119;-72
2024/01/25 08:03:50;;;;;;;15.60;9.20;;;;;;;5.47;100.00;100462.17;109218;1244;73910;-73
2024/01/25 08:06:19;;;;;;;12.30;8.50;;;;;;;5.48;100.00;100462.96;109285;1245;58305;-72
2024/01/25 08:08:48;;;;;;;13.10;9.10;;;;;;;5.62;100.00;100462.89;109321;1244;60157;-73
2024/01/25 08:11:19;;;;;;;17.30;10.20;;;;;;;5.78;100.00;100458.50;109359;1243;64278;-72
2024/01/25 08:13:49;;;;;;;16.90;10.80;;;;;;;5.76;100.00;100454.83;109239;1243;62239;-72
2024/01/25 08:16:19;;;;;;;19.90;12.50;;;;;;;6.01;100.00;100455.02;109243;1244;69839;-72
2024/01/25 08:18:49;;;;;;;24.00;14.50;;;;;;;6.31;100.00;100458.45;109336;1245;62710;-73
2024/01/25 08:21:18;;;;;;;25.20;14.60;;;;;;;6.42;100.00;100463.85;109663;1241;58341;-73
2024/01/25 08:23:47;;;;;;;24.10;14.60;;;;;;;6.51;100.00;100460.75;109799;1238;58290;-73
2024/01/25 08:26:16;;;;;;;25.40;14.10;;;;;;;6.45;100.00;100467.63;109760;1238;72707;-72
2024/01/25 08:28:46;;;;;;;14.50;8.80;;;;;;;6.48;100.00;100472.64;109801;1239;70115;-71
2024/01/25 08:31:15;;;;;;;12.60;8.40;;;;;;;6.50;100.00;100478.77;109483;1238;60079;-73
2024/01/25 08:33:47;;;;;;;10.70;7.10;;;;;;;6.49;100.00;100482.67;109724;1238;63163;-73
2024/01/25 08:36:20;;;;;;;9.70;6.30;;;;;;;6.54;100.00;100494.60;109710;1239;60365;-73
2024/01/25 08:38:48;;;;;;;9.90;5.90;;;;;;;6.56;100.00;100496.21;109650;1238;61625;-72
2024/01/25 08:41:17;;;;;;;8.20;3.90;;;;;;;6.63;100.00;100496.35;109752;1238;65221;-72
2024/01/25 08:43:46;;;;;;;6.30;3.60;;;;;;;6.75;100.00;100491.81;109732;1240;61233;-73
2024/01/25 08:46:15;;;;;;;5.90;3.30;;;;;;;6.86;100.00;100493.75;109725;1241;60031;-73
2024/01/25 08:48:45;;;;;;;5.20;3.00;;;;;;;6.88;100.00;100496.03;109645;1238;72785;-73
2024/01/25 08:51:14;;;;;;;7.70;3.20;;;;;;;6.98;100.00;100498.41;109743;1238;59973;-73
2024/01/25 08:53:43;;;;;;;4.80;2.90;;;;;;;7.03;100.00;100501.92;109753;1238;61453;-72
2024/01/25 08:56:11;;;;;;;5.40;3.50;;;;;;;7.07;100.00;100503.56;109771;1238;74424;-74
2024/01/25 08:58:40;;;;;;;7.00;3.90;;;;;;;7.12;100.00;100510.33;109794;1241;61162;-73
2024/01/25 09:01:10;;;;;;;6.00;3.30;;;;;;;7.12;100.00;100512.60;109776;1238;59823;-73
2024/01/25 09:03:39;;;;;;;5.60;2.90;;;;;;;7.12;100.00;100521.06;109512;1238;64312;-72
2024/01/25 09:06:09;;;;;;;5.80;3.50;;;;;;;7.04;100.00;100512.91;109728;1240;59674;-73
2024/01/25 09:08:38;;;;;;;5.30;3.30;;;;;;;7.02;100.00;100525.17;109666;1241;58322;-73
2024/01/25 09:11:07;;;;;;;6.10;3.60;;;;;;;6.85;100.00;100523.21;109669;1238;62860;-75
2024/01/25 09:13:35;;;;;;;6.30;3.70;;;;;;;6.85;100.00;100529.64;109761;1238;71311;-71
2024/01/25 09:16:16;;;;;;;6.90;4.20;;;;;;;6.80;100.00;100539.79;109768;1238;70931;-73
2024/01/25 09:18:45;;;;;;;7.30;4.10;;;;;;;6.70;100.00;100539.23;109470;1238;72389;-73
2024/01/25 09:21:14;;;;;;;5.40;3.60;;;;;;;6.69;100.00;100539.95;109570;1241;59854;-75
2024/01/25 09:23:42;;;;;;;7.10;4.10;;;;;;;6.62;100.00;100543.80;109739;1238;61462;-73
2024/01/25 09:26:11;;;;;;;6.10;4.00;;;;;;;6.44;100.00;100551.26;109722;1241;64561;-73
2024/01/25 09:28:40;;;;;;;6.10;3.80;;;;;;;6.40;100.00;100543.86;109734;1241;62122;-72
2024/01/25 09:31:09;;;;;;;6.30;3.80;;;;;;;6.14;100.00;100539.16;109602;1241;59980;-72
2024/01/25 09:33:38;;;;;;;5.80;3.30;;;;;;;6.09;100.00;100526.61;109734;1238;72716;-70
2024/01/25 09:36:08;;;;;;;5.30;2.90;;;;;;;6.03;100.00;100515.55;109670;1238;61500;-73
2024/01/25 09:38:37;;;;;;;4.60;2.60;;;;;;;5.97;100.00;100517.45;109634;1238;61047;-72
2024/01/25 09:41:06;;;;;;;4.80;2.70;;;;;;;6.04;100.00;100510.84;109660;1238;74798;-72
2024/01/25 09:43:36;;;;;;;6.10;2.80;;;;;;;6.00;100.00;100516.08;109766;1238;72636;-72
2024/01/25 09:46:07;;;;;;;4.60;2.80;;;;;;;6.05;100.00;100503.86;109652;1238;60340;-71
2024/01/25 09:48:36;;;;;;;4.30;2.60;;;;;;;6.12;100.00;100486.19;109609;1241;62516;-72
2024/01/25 09:51:05;;;;;;;5.30;2.60;;;;;;;6.29;100.00;100469.44;109742;1240;58369;-72
2024/01/25 09:53:35;;;;;;;5.50;3.00;;;;;;;6.50;100.00;100480.70;109783;1240;58259;-73
2024/01/25 09:56:07;;;;;;;6.30;3.30;;;;;;;6.67;100.00;100473.47;109687;1241;63769;-71
2024/01/25 09:58:47;;;;;;;8.00;4.40;;;;;;;6.86;100.00;100472.48;109769;1241;60777;-71
2024/01/25 10:01:16;;;;;;;9.00;4.70;;;;;;;7.03;100.00;100468.83;109514;1238;70566;-72
2024/01/25 10:03:48;;;;;;;7.50;4.40;;;;;;;7.22;100.00;100468.40;109658;1241;72593;-72
2024/01/25 10:06:18;;;;;;;9.30;5.30;;;;;;;7.26;100.00;100464.66;109520;1241;59548;-73
2024/01/25 10:08:47;;;;;;;7.90;4.50;;;;;;;7.26;100.00;100459.27;109555;1241;58384;-72
2024/01/25 10:11:17;;;;;;;8.20;4.50;;;;;;;7.38;100.00;100459.52;109676;1241;74456;-73
2024/01/25 10:13:47;;;;;;;7.70;4.70;;;;;;;7.46;100.00;100459.59;109532;1238;72857;-72
2024/01/25 10:16:20;;;;;;;10.60;4.30;;;;;;;7.53;100.00;100459.66;109802;1241;60699;-75
2024/01/25 10:18:49;;;;;;;7.50;4.50;;;;;;;7.56;100.00;100459.98;109793;1238;73045;-73
2024/01/25 10:21:19;;;;;;;10.60;6.10;;;;;;;7.34;100.00;100455.16;109782;1241;58293;-73
2024/01/25 10:23:50;;;;;;;8.40;4.60;;;;;;;7.16;100.00;100451.94;109549;1238;60405;-73
2024/01/25 10:26:19;;;;;;;7.60;4.30;;;;;;;7.29;100.00;100452.16;109562;1238;72315;-73
2024/01/25 10:28:52;;;;;;;8.10;4.60;;;;;;;7.38;100.00;100450.01;109775;1238;72226;-72
2024/01/25 10:31:30;;;;;;;7.00;3.90;;;;;;;7.43;100.00;100444.83;109562;1242;60158;-73
2024/01/25 10:34:00;;;;;;;5.30;3.80;;;;;;;7.48;100.00;100424.48;109809;1241;63277;-74
2024/01/25 10:36:32;;;;;;;8.50;3.50;;;;;;;7.78;100.00;100431.90;109797;1241;59543;-72
2024/01/25 10:39:04;;;;;;;5.30;2.60;;;;;;;7.82;100.00;100430.77;109700;1238;61437;-72
2024/01/25 10:41:34;;;;;;;;;;;;;;;7.89;100.00;100426.63;109733;1238;63770;-73
2024/01/25 10:44:06;;;;;;;3.60;2.20;;;;;;;7.86;100.00;100430.67;109647;1241;71460;-73
2024/01/25 10:46:37;;;;;;;4.70;2.30;;;;;;;7.92;100.00;100424.70;109518;1238;70894;-72
2024/01/25 10:49:07;;;;;;;4.30;2.20;;;;;;;7.96;100.00;100424.98;109608;1240;74425;-72
2024/01/25 10:51:37;;;;;;;6.00;3.10;;;;;;;8.13;100.00;100419.52;109675;1239;57869;-73
2024/01/25 10:54:11;;;;;;;6.90;3.30;;;;;;;8.27;100.00;100415.92;109688;1238;60316;-73
2024/01/25 10:56:43;;;;;;;7.50;4.90;;;;;;;8.46;100.00;100409.32;109666;1241;74231;-73
2024/01/25 10:59:12;;;;;;;8.10;3.90;;;;;;;8.65;100.00;100407.00;109538;1238;71474;-74
2024/01/25 11:01:47;;;;;;;6.20;4.00;;;;;;;8.92;100.00;100413.96;109647;1238;70051;-73
2024/01/25 11:04:18;;;;;;;5.90;3.00;;;;;;;9.20;100.00;100410.95;109638;1238;73456;-71
2024/01/25 11:06:48;;;;;;;4.00;2.10;;;;;;;9.50;100.00;100426.16;109542;1242;60709;-73
2024/01/25 11:09:21;;;;;;;4.50;2.60;;;;;;;9.59;100.00;100412.43;109543;1238;58195;-73
2024/01/25 11:11:54;;;;;;;3.30;2.10;;;;;;;9.60;100.00;100406.32;109670;1241;65216;-73
2024/01/25 11:14:25;;;;;;;4.20;2.00;;;;;;;9.66;100.00;100394.19;109563;1242;60959;-73
2024/01/25 11:16:54;;;;;;;8.30;2.00;;;;;;;9.67;100.00;100392.05;109663;1241;59282;-72
2024/01/25 11:19:23;;;;;;;3.80;2.10;;;;;;;9.53;100.00;100397.05;109764;1241;63163;-72